sensor_id;sensor_type;location;lat;lon;timestamp;P1;durP1;ratioP1;P2;durP2;ratioP2
43650;SDS011;29247;50.944;5.382;2023-04-24T00:01:35;8.55;;;3.70;;
43650;SDS011;29247;50.944;5.382;2023-04-24T00:04:01;7.60;;;3.72;;
43650;SDS011;29247;50.944;5.382;2023-04-24T00:06:28;9.02;;;4.60;;
43650;SDS011;29247;50.944;5.382;2023-04-24T00:09:02;10.15;;;4.70;;
43650;SDS011;29247;50.944;5.382;2023-04-24T00:11:31;9.90;;;4.82;;
43650;SDS011;29247;50.944;5.382;2023-04-24T00:14:01;9.05;;;4.90;;
43650;SDS011;29247;50.944;5.382;2023-04-24T00:16:29;11.30;;;5.75;;
43650;SDS011;29247;50.944;5.382;2023-04-24T00:18:55;11.80;;;4.85;;
43650;SDS011;29247;50.944;5.382;2023-04-24T00:21:21;11.60;;;5.25;;
43650;SDS011;29247;50.944;5.382;2023-04-24T00:23:50;10.25;;;5.80;;
43650;SDS011;29247;50.944;5.382;2023-04-24T00:26:16;8.98;;;5.65;;
43650;SDS011;29247;50.944;5.382;2023-04-24T00:28:41;10.52;;;5.38;;
43650;SDS011;29247;50.944;5.382;2023-04-24T00:31:07;10.63;;;5.35;;
43650;SDS011;29247;50.944;5.382;2023-04-24T00:33:34;11.52;;;5.18;;
43650;SDS011;29247;50.944;5.382;2023-04-24T00:35:59;9.77;;;5.53;;
43650;SDS011;29247;50.944;5.382;2023-04-24T00:38:25;10.57;;;6.07;;
43650;SDS011;29247;50.944;5.382;2023-04-24T00:40:53;11.57;;;5.53;;
43650;SDS011;29247;50.944;5.382;2023-04-24T00:43:19;11.68;;;5.85;;
43650;SDS011;29247;50.944;5.382;2023-04-24T00:45:45;10.73;;;6.13;;
43650;SDS011;29247;50.944;5.382;2023-04-24T00:48:12;11.85;;;6.72;;
43650;SDS011;29247;50.944;5.382;2023-04-24T00:50:38;13.77;;;6.30;;
43650;SDS011;29247;50.944;5.382;2023-04-24T00:53:06;13.48;;;6.80;;
43650;SDS011;29247;50.944;5.382;2023-04-24T00:55:36;12.70;;;6.75;;
43650;SDS011;29247;50.944;5.382;2023-04-24T00:58:03;14.63;;;7.63;;
43650;SDS011;29247;50.944;5.382;2023-04-24T01:00:31;18.23;;;6.95;;
43650;SDS011;29247;50.944;5.382;2023-04-24T01:02:57;19.50;;;7.78;;
43650;SDS011;29247;50.944;5.382;2023-04-24T01:05:25;14.63;;;7.10;;
43650;SDS011;29247;50.944;5.382;2023-04-24T01:07:51;12.68;;;6.93;;
43650;SDS011;29247;50.944;5.382;2023-04-24T01:10:17;15.98;;;7.35;;
43650;SDS011;29247;50.944;5.382;2023-04-24T01:12:45;16.02;;;6.88;;
43650;SDS011;29247;50.944;5.382;2023-04-24T01:15:11;8.65;;;6.88;;
43650;SDS011;29247;50.944;5.382;2023-04-24T01:17:39;12.88;;;6.10;;
43650;SDS011;29247;50.944;5.382;2023-04-24T01:20:07;10.93;;;6.18;;
43650;SDS011;29247;50.944;5.382;2023-04-24T01:22:35;14.57;;;7.05;;
43650;SDS011;29247;50.944;5.382;2023-04-24T01:25:02;13.93;;;7.65;;
43650;SDS011;29247;50.944;5.382;2023-04-24T01:27:28;11.43;;;7.38;;
43650;SDS011;29247;50.944;5.382;2023-04-24T01:29:56;17.42;;;6.47;;
43650;SDS011;29247;50.944;5.382;2023-04-24T01:32:25;15.68;;;6.80;;
43650;SDS011;29247;50.944;5.382;2023-04-24T01:34:53;11.75;;;6.40;;
43650;SDS011;29247;50.944;5.382;2023-04-24T01:37:21;12.90;;;6.78;;
43650;SDS011;29247;50.944;5.382;2023-04-24T01:39:47;14.30;;;7.88;;
43650;SDS011;29247;50.944;5.382;2023-04-24T01:42:13;12.55;;;7.22;;
43650;SDS011;29247;50.944;5.382;2023-04-24T01:44:41;14.50;;;6.60;;
43650;SDS011;29247;50.944;5.382;2023-04-24T01:47:09;12.38;;;6.25;;
43650;SDS011;29247;50.944;5.382;2023-04-24T01:49:38;12.48;;;6.50;;
43650;SDS011;29247;50.944;5.382;2023-04-24T01:52:04;16.92;;;7.18;;
43650;SDS011;29247;50.944;5.382;2023-04-24T01:54:32;13.43;;;6.60;;
43650;SDS011;29247;50.944;5.382;2023-04-24T01:57:02;15.10;;;6.68;;
43650;SDS011;29247;50.944;5.382;2023-04-24T01:59:29;16.05;;;6.78;;
43650;SDS011;29247;50.944;5.382;2023-04-24T02:02:01;16.40;;;6.57;;
43650;SDS011;29247;50.944;5.382;2023-04-24T02:04:27;10.73;;;6.53;;
43650;SDS011;29247;50.944;5.382;2023-04-24T02:06:56;16.73;;;6.88;;
43650;SDS011;29247;50.944;5.382;2023-04-24T02:09:22;9.65;;;6.50;;
43650;SDS011;29247;50.944;5.382;2023-04-24T02:11:51;13.15;;;7.15;;
43650;SDS011;29247;50.944;5.382;2023-04-24T02:14:21;10.75;;;6.60;;
43650;SDS011;29247;50.944;5.382;2023-04-24T02:16:47;11.02;;;6.60;;
43650;SDS011;29247;50.944;5.382;2023-04-24T02:19:13;11.63;;;7.18;;
43650;SDS011;29247;50.944;5.382;2023-04-24T02:21:43;11.88;;;7.25;;
43650;SDS011;29247;50.944;5.382;2023-04-24T02:24:09;11.90;;;7.00;;
43650;SDS011;29247;50.944;5.382;2023-04-24T02:26:37;13.27;;;6.85;;
43650;SDS011;29247;50.944;5.382;2023-04-24T02:29:03;13.27;;;7.20;;
43650;SDS011;29247;50.944;5.382;2023-04-24T02:31:28;14.20;;;7.45;;
43650;SDS011;29247;50.944;5.382;2023-04-24T02:33:54;12.95;;;7.70;;
43650;SDS011;29247;50.944;5.382;2023-04-24T02:36:19;10.70;;;5.82;;
43650;SDS011;29247;50.944;5.382;2023-04-24T02:38:46;11.57;;;6.90;;
43650;SDS011;29247;50.944;5.382;2023-04-24T02:41:14;10.68;;;6.90;;
43650;SDS011;29247;50.944;5.382;2023-04-24T02:43:45;11.35;;;6.95;;
43650;SDS011;29247;50.944;5.382;2023-04-24T02:46:10;10.15;;;6.78;;
43650;SDS011;29247;50.944;5.382;2023-04-24T02:48:40;9.40;;;6.05;;
43650;SDS011;29247;50.944;5.382;2023-04-24T02:51:08;11.30;;;5.97;;
43650;SDS011;29247;50.944;5.382;2023-04-24T02:53:34;9.80;;;6.35;;
43650;SDS011;29247;50.944;5.382;2023-04-24T02:56:00;8.70;;;5.18;;
43650;SDS011;29247;50.944;5.382;2023-04-24T02:58:26;9.45;;;5.63;;
43650;SDS011;29247;50.944;5.382;2023-04-24T03:00:55;11.30;;;5.82;;
43650;SDS011;29247;50.944;5.382;2023-04-24T03:03:21;9.73;;;5.55;;
43650;SDS011;29247;50.944;5.382;2023-04-24T03:05:47;7.50;;;5.55;;
43650;SDS011;29247;50.944;5.382;2023-04-24T03:08:13;8.90;;;5.25;;
43650;SDS011;29247;50.944;5.382;2023-04-24T03:10:44;12.68;;;5.72;;
43650;SDS011;29247;50.944;5.382;2023-04-24T03:13:12;9.25;;;5.65;;
43650;SDS011;29247;50.944;5.382;2023-04-24T03:15:38;10.63;;;5.40;;
43650;SDS011;29247;50.944;5.382;2023-04-24T03:18:06;15.15;;;6.45;;
43650;SDS011;29247;50.944;5.382;2023-04-24T03:20:35;8.68;;;5.82;;
43650;SDS011;29247;50.944;5.382;2023-04-24T03:23:02;10.63;;;5.43;;
43650;SDS011;29247;50.944;5.382;2023-04-24T03:25:30;12.07;;;6.80;;
43650;SDS011;29247;50.944;5.382;2023-04-24T03:27:58;12.70;;;6.45;;
43650;SDS011;29247;50.944;5.382;2023-04-24T03:30:27;10.48;;;6.45;;
43650;SDS011;29247;50.944;5.382;2023-04-24T03:32:53;12.50;;;6.15;;
43650;SDS011;29247;50.944;5.382;2023-04-24T03:35:19;11.45;;;5.97;;
43650;SDS011;29247;50.944;5.382;2023-04-24T03:37:46;11.40;;;5.80;;
43650;SDS011;29247;50.944;5.382;2023-04-24T03:40:12;12.32;;;6.55;;
43650;SDS011;29247;50.944;5.382;2023-04-24T03:42:38;9.90;;;6.53;;
43650;SDS011;29247;50.944;5.382;2023-04-24T03:45:04;7.90;;;5.68;;
43650;SDS011;29247;50.944;5.382;2023-04-24T03:47:32;7.53;;;5.13;;
43650;SDS011;29247;50.944;5.382;2023-04-24T03:49:58;8.77;;;5.63;;
43650;SDS011;29247;50.944;5.382;2023-04-24T03:52:24;12.68;;;5.90;;
43650;SDS011;29247;50.944;5.382;2023-04-24T03:54:50;12.00;;;5.82;;
43650;SDS011;29247;50.944;5.382;2023-04-24T03:57:15;8.98;;;5.82;;
43650;SDS011;29247;50.944;5.382;2023-04-24T03:59:41;8.30;;;5.05;;
43650;SDS011;29247;50.944;5.382;2023-04-24T04:02:06;11.27;;;5.88;;
43650;SDS011;29247;50.944;5.382;2023-04-24T04:04:37;7.07;;;5.10;;
43650;SDS011;29247;50.944;5.382;2023-04-24T04:07:02;9.48;;;5.55;;
43650;SDS011;29247;50.944;5.382;2023-04-24T04:09:30;11.63;;;5.38;;
43650;SDS011;29247;50.944;5.382;2023-04-24T04:11:58;10.13;;;5.05;;
43650;SDS011;29247;50.944;5.382;2023-04-24T04:14:25;7.57;;;4.63;;
43650;SDS011;29247;50.944;5.382;2023-04-24T04:16:53;9.82;;;6.10;;
43650;SDS011;29247;50.944;5.382;2023-04-24T04:19:19;8.93;;;5.35;;
43650;SDS011;29247;50.944;5.382;2023-04-24T04:21:45;10.68;;;5.72;;
43650;SDS011;29247;50.944;5.382;2023-04-24T04:24:11;12.05;;;6.30;;
43650;SDS011;29247;50.944;5.382;2023-04-24T04:26:39;6.95;;;4.78;;
43650;SDS011;29247;50.944;5.382;2023-04-24T04:29:12;7.97;;;4.80;;
43650;SDS011;29247;50.944;5.382;2023-04-24T04:31:38;6.68;;;5.05;;
43650;SDS011;29247;50.944;5.382;2023-04-24T04:34:04;10.82;;;4.72;;
43650;SDS011;29247;50.944;5.382;2023-04-24T04:36:29;8.48;;;4.50;;
43650;SDS011;29247;50.944;5.382;2023-04-24T04:38:56;4.60;;;3.60;;
43650;SDS011;29247;50.944;5.382;2023-04-24T04:41:27;7.75;;;4.53;;
43650;SDS011;29247;50.944;5.382;2023-04-24T04:43:53;6.55;;;4.03;;
43650;SDS011;29247;50.944;5.382;2023-04-24T04:46:19;11.15;;;4.28;;
43650;SDS011;29247;50.944;5.382;2023-04-24T04:48:46;8.27;;;4.20;;
43650;SDS011;29247;50.944;5.382;2023-04-24T04:51:14;6.32;;;4.10;;
43650;SDS011;29247;50.944;5.382;2023-04-24T04:53:40;7.05;;;3.65;;
43650;SDS011;29247;50.944;5.382;2023-04-24T04:56:06;8.32;;;4.30;;
43650;SDS011;29247;50.944;5.382;2023-04-24T04:58:34;7.70;;;3.92;;
43650;SDS011;29247;50.944;5.382;2023-04-24T05:01:02;7.68;;;4.47;;
43650;SDS011;29247;50.944;5.382;2023-04-24T05:03:28;6.75;;;3.80;;
43650;SDS011;29247;50.944;5.382;2023-04-24T05:05:53;5.20;;;4.00;;
43650;SDS011;29247;50.944;5.382;2023-04-24T05:08:19;6.32;;;4.10;;
43650;SDS011;29247;50.944;5.382;2023-04-24T05:10:47;5.82;;;3.55;;
43650;SDS011;29247;50.944;5.382;2023-04-24T05:13:13;6.47;;;3.90;;
43650;SDS011;29247;50.944;5.382;2023-04-24T05:15:40;5.90;;;3.33;;
43650;SDS011;29247;50.944;5.382;2023-04-24T05:18:06;5.93;;;3.33;;
43650;SDS011;29247;50.944;5.382;2023-04-24T05:20:32;6.00;;;3.25;;
43650;SDS011;29247;50.944;5.382;2023-04-24T05:22:57;5.88;;;3.40;;
43650;SDS011;29247;50.944;5.382;2023-04-24T05:25:23;5.15;;;3.10;;
43650;SDS011;29247;50.944;5.382;2023-04-24T05:27:54;5.50;;;3.50;;
43650;SDS011;29247;50.944;5.382;2023-04-24T05:30:20;5.68;;;3.03;;
43650;SDS011;29247;50.944;5.382;2023-04-24T05:32:45;5.95;;;3.45;;
43650;SDS011;29247;50.944;5.382;2023-04-24T05:35:11;4.93;;;3.58;;
43650;SDS011;29247;50.944;5.382;2023-04-24T05:37:37;6.50;;;3.33;;
43650;SDS011;29247;50.944;5.382;2023-04-24T05:40:03;6.82;;;3.90;;
43650;SDS011;29247;50.944;5.382;2023-04-24T05:42:30;5.80;;;3.30;;
43650;SDS011;29247;50.944;5.382;2023-04-24T05:44:59;3.70;;;2.80;;
43650;SDS011;29247;50.944;5.382;2023-04-24T05:47:27;5.55;;;3.05;;
43650;SDS011;29247;50.944;5.382;2023-04-24T05:49:55;5.22;;;3.53;;
43650;SDS011;29247;50.944;5.382;2023-04-24T05:52:24;2.95;;;2.22;;
43650;SDS011;29247;50.944;5.382;2023-04-24T05:54:50;4.50;;;2.30;;
43650;SDS011;29247;50.944;5.382;2023-04-24T05:57:18;6.32;;;2.53;;
43650;SDS011;29247;50.944;5.382;2023-04-24T05:59:44;3.67;;;2.78;;
43650;SDS011;29247;50.944;5.382;2023-04-24T06:02:13;4.18;;;2.85;;
43650;SDS011;29247;50.944;5.382;2023-04-24T06:04:39;6.93;;;2.97;;
43650;SDS011;29247;50.944;5.382;2023-04-24T06:07:11;6.07;;;3.30;;
43650;SDS011;29247;50.944;5.382;2023-04-24T06:09:36;7.10;;;3.28;;
43650;SDS011;29247;50.944;5.382;2023-04-24T06:12:02;6.20;;;3.70;;
43650;SDS011;29247;50.944;5.382;2023-04-24T06:14:28;6.50;;;2.67;;
43650;SDS011;29247;50.944;5.382;2023-04-24T06:16:54;5.13;;;3.33;;
43650;SDS011;29247;50.944;5.382;2023-04-24T06:19:24;6.88;;;3.47;;
43650;SDS011;29247;50.944;5.382;2023-04-24T06:21:49;9.88;;;3.60;;
43650;SDS011;29247;50.944;5.382;2023-04-24T06:24:15;4.80;;;3.40;;
43650;SDS011;29247;50.944;5.382;2023-04-24T06:26:41;5.65;;;3.70;;
43650;SDS011;29247;50.944;5.382;2023-04-24T06:29:07;5.05;;;3.50;;
43650;SDS011;29247;50.944;5.382;2023-04-24T06:31:36;6.75;;;4.15;;
43650;SDS011;29247;50.944;5.382;2023-04-24T06:34:03;4.45;;;3.42;;
43650;SDS011;29247;50.944;5.382;2023-04-24T06:36:29;10.45;;;4.00;;
43650;SDS011;29247;50.944;5.382;2023-04-24T06:38:58;6.22;;;3.83;;
43650;SDS011;29247;50.944;5.382;2023-04-24T06:41:26;7.20;;;3.83;;
43650;SDS011;29247;50.944;5.382;2023-04-24T06:43:52;7.78;;;4.20;;
43650;SDS011;29247;50.944;5.382;2023-04-24T06:46:21;5.07;;;3.80;;
43650;SDS011;29247;50.944;5.382;2023-04-24T06:48:51;6.32;;;3.97;;
43650;SDS011;29247;50.944;5.382;2023-04-24T06:51:20;5.65;;;3.30;;
43650;SDS011;29247;50.944;5.382;2023-04-24T06:53:50;6.82;;;3.40;;
43650;SDS011;29247;50.944;5.382;2023-04-24T06:56:19;8.55;;;3.75;;
43650;SDS011;29247;50.944;5.382;2023-04-24T06:58:46;8.45;;;3.90;;
43650;SDS011;29247;50.944;5.382;2023-04-24T07:01:11;6.25;;;3.60;;
43650;SDS011;29247;50.944;5.382;2023-04-24T07:03:39;5.95;;;3.67;;
43650;SDS011;29247;50.944;5.382;2023-04-24T07:06:08;8.75;;;3.72;;
43650;SDS011;29247;50.944;5.382;2023-04-24T07:08:37;10.38;;;4.07;;
43650;SDS011;29247;50.944;5.382;2023-04-24T07:11:03;9.45;;;4.20;;
43650;SDS011;29247;50.944;5.382;2023-04-24T07:13:29;9.75;;;5.10;;
43650;SDS011;29247;50.944;5.382;2023-04-24T07:15:55;5.90;;;4.35;;
43650;SDS011;29247;50.944;5.382;2023-04-24T07:18:29;9.10;;;4.20;;
43650;SDS011;29247;50.944;5.382;2023-04-24T07:20:55;7.78;;;4.93;;
43650;SDS011;29247;50.944;5.382;2023-04-24T07:23:23;9.02;;;5.07;;
43650;SDS011;29247;50.944;5.382;2023-04-24T07:25:51;8.27;;;5.35;;
43650;SDS011;29247;50.944;5.382;2023-04-24T07:28:19;10.90;;;5.07;;
43650;SDS011;29247;50.944;5.382;2023-04-24T07:30:45;9.48;;;5.38;;
43650;SDS011;29247;50.944;5.382;2023-04-24T07:33:11;10.57;;;5.43;;
43650;SDS011;29247;50.944;5.382;2023-04-24T07:35:38;8.60;;;5.32;;
43650;SDS011;29247;50.944;5.382;2023-04-24T07:38:04;11.85;;;5.57;;
43650;SDS011;29247;50.944;5.382;2023-04-24T07:40:32;13.38;;;6.00;;
43650;SDS011;29247;50.944;5.382;2023-04-24T07:43:00;9.82;;;5.65;;
43650;SDS011;29247;50.944;5.382;2023-04-24T07:45:28;9.95;;;6.30;;
43650;SDS011;29247;50.944;5.382;2023-04-24T07:47:56;14.00;;;5.40;;
43650;SDS011;29247;50.944;5.382;2023-04-24T07:50:22;10.23;;;5.90;;
43650;SDS011;29247;50.944;5.382;2023-04-24T07:52:50;11.60;;;5.63;;
43650;SDS011;29247;50.944;5.382;2023-04-24T07:55:18;11.30;;;5.72;;
43650;SDS011;29247;50.944;5.382;2023-04-24T07:57:44;9.35;;;5.28;;
43650;SDS011;29247;50.944;5.382;2023-04-24T08:00:12;7.85;;;4.35;;
43650;SDS011;29247;50.944;5.382;2023-04-24T08:02:38;10.98;;;5.07;;
43650;SDS011;29247;50.944;5.382;2023-04-24T08:05:05;12.43;;;5.72;;
43650;SDS011;29247;50.944;5.382;2023-04-24T08:07:34;10.90;;;5.53;;
43650;SDS011;29247;50.944;5.382;2023-04-24T08:10:00;10.65;;;6.03;;
43650;SDS011;29247;50.944;5.382;2023-04-24T08:12:30;11.85;;;6.35;;
43650;SDS011;29247;50.944;5.382;2023-04-24T08:14:58;11.88;;;6.55;;
43650;SDS011;29247;50.944;5.382;2023-04-24T08:17:26;11.82;;;6.45;;
43650;SDS011;29247;50.944;5.382;2023-04-24T08:19:52;8.75;;;6.00;;
43650;SDS011;29247;50.944;5.382;2023-04-24T08:22:24;13.10;;;6.60;;
43650;SDS011;29247;50.944;5.382;2023-04-24T08:24:50;11.15;;;5.20;;
43650;SDS011;29247;50.944;5.382;2023-04-24T08:27:19;12.18;;;6.22;;
43650;SDS011;29247;50.944;5.382;2023-04-24T08:29:45;9.88;;;5.80;;
43650;SDS011;29247;50.944;5.382;2023-04-24T08:32:11;8.48;;;5.90;;
43650;SDS011;29247;50.944;5.382;2023-04-24T08:34:39;9.88;;;5.40;;
43650;SDS011;29247;50.944;5.382;2023-04-24T08:37:05;11.00;;;5.72;;
43650;SDS011;29247;50.944;5.382;2023-04-24T08:39:31;7.82;;;4.65;;
43650;SDS011;29247;50.944;5.382;2023-04-24T08:41:57;10.82;;;5.90;;
43650;SDS011;29247;50.944;5.382;2023-04-24T08:44:32;13.10;;;5.50;;
43650;SDS011;29247;50.944;5.382;2023-04-24T08:47:00;9.63;;;5.13;;
43650;SDS011;29247;50.944;5.382;2023-04-24T08:49:27;9.63;;;5.55;;
43650;SDS011;29247;50.944;5.382;2023-04-24T08:51:53;11.32;;;4.38;;
43650;SDS011;29247;50.944;5.382;2023-04-24T08:54:22;7.25;;;4.63;;
43650;SDS011;29247;50.944;5.382;2023-04-24T08:56:50;10.18;;;5.20;;
43650;SDS011;29247;50.944;5.382;2023-04-24T08:59:21;8.63;;;5.05;;
43650;SDS011;29247;50.944;5.382;2023-04-24T09:01:50;6.93;;;4.45;;
43650;SDS011;29247;50.944;5.382;2023-04-24T09:04:20;10.98;;;4.53;;
43650;SDS011;29247;50.944;5.382;2023-04-24T09:06:48;8.80;;;3.85;;
43650;SDS011;29247;50.944;5.382;2023-04-24T09:09:15;7.28;;;3.58;;
43650;SDS011;29247;50.944;5.382;2023-04-24T09:11:45;7.63;;;3.65;;
43650;SDS011;29247;50.944;5.382;2023-04-24T09:14:12;5.88;;;3.08;;
43650;SDS011;29247;50.944;5.382;2023-04-24T09:16:38;6.93;;;3.20;;
43650;SDS011;29247;50.944;5.382;2023-04-24T09:19:04;5.43;;;3.22;;
43650;SDS011;29247;50.944;5.382;2023-04-24T09:21:33;7.63;;;2.97;;
43650;SDS011;29247;50.944;5.382;2023-04-24T09:24:00;10.55;;;3.08;;
43650;SDS011;29247;50.944;5.382;2023-04-24T09:26:34;5.85;;;2.25;;
43650;SDS011;29247;50.944;5.382;2023-04-24T09:29:01;6.65;;;2.03;;
43650;SDS011;29247;50.944;5.382;2023-04-24T09:31:29;6.82;;;2.85;;
43650;SDS011;29247;50.944;5.382;2023-04-24T09:34:01;7.15;;;2.42;;
43650;SDS011;29247;50.944;5.382;2023-04-24T09:36:34;9.73;;;2.92;;
43650;SDS011;29247;50.944;5.382;2023-04-24T09:39:03;8.68;;;3.00;;
43650;SDS011;29247;50.944;5.382;2023-04-24T09:41:31;6.10;;;2.70;;
43650;SDS011;29247;50.944;5.382;2023-04-24T09:44:01;8.32;;;3.50;;
43650;SDS011;29247;50.944;5.382;2023-04-24T09:46:40;5.97;;;3.22;;
43650;SDS011;29247;50.944;5.382;2023-04-24T09:49:11;5.53;;;3.25;;
43650;SDS011;29247;50.944;5.382;2023-04-24T09:51:39;5.15;;;3.30;;
43650;SDS011;29247;50.944;5.382;2023-04-24T09:54:11;9.50;;;4.65;;
43650;SDS011;29247;50.944;5.382;2023-04-24T09:56:42;15.95;;;4.15;;
43650;SDS011;29247;50.944;5.382;2023-04-24T09:59:10;10.00;;;3.33;;
43650;SDS011;29247;50.944;5.382;2023-04-24T10:01:36;12.38;;;3.47;;
43650;SDS011;29247;50.944;5.382;2023-04-24T10:04:03;16.20;;;4.25;;
43650;SDS011;29247;50.944;5.382;2023-04-24T10:06:35;11.13;;;4.00;;
43650;SDS011;29247;50.944;5.382;2023-04-24T10:09:01;12.27;;;4.30;;
43650;SDS011;29247;50.944;5.382;2023-04-24T10:11:28;8.80;;;3.67;;
43650;SDS011;29247;50.944;5.382;2023-04-24T10:13:58;9.95;;;4.45;;
43650;SDS011;29247;50.944;5.382;2023-04-24T10:16:25;9.18;;;4.05;;
43650;SDS011;29247;50.944;5.382;2023-04-24T10:18:52;10.20;;;4.20;;
43650;SDS011;29247;50.944;5.382;2023-04-24T10:21:18;9.48;;;4.47;;
43650;SDS011;29247;50.944;5.382;2023-04-24T10:23:45;11.15;;;4.25;;
43650;SDS011;29247;50.944;5.382;2023-04-24T10:26:14;10.68;;;4.15;;
43650;SDS011;29247;50.944;5.382;2023-04-24T10:28:46;10.18;;;4.38;;
43650;SDS011;29247;50.944;5.382;2023-04-24T10:31:13;12.73;;;4.20;;
43650;SDS011;29247;50.944;5.382;2023-04-24T10:33:42;7.95;;;4.05;;
43650;SDS011;29247;50.944;5.382;2023-04-24T10:36:13;8.48;;;4.00;;
43650;SDS011;29247;50.944;5.382;2023-04-24T10:38:41;8.48;;;3.63;;
43650;SDS011;29247;50.944;5.382;2023-04-24T10:41:11;7.87;;;4.10;;
43650;SDS011;29247;50.944;5.382;2023-04-24T10:44:04;9.07;;;4.40;;
43650;SDS011;29247;50.944;5.382;2023-04-24T10:46:33;7.15;;;3.88;;
43650;SDS011;29247;50.944;5.382;2023-04-24T10:49:10;8.40;;;4.80;;
43650;SDS011;29247;50.944;5.382;2023-04-24T10:54:36;10.23;;;4.97;;
43650;SDS011;29247;50.944;5.382;2023-04-24T11:02:46;10.85;;;4.63;;
43650;SDS011;29247;50.944;5.382;2023-04-24T11:05:18;11.65;;;4.47;;
43650;SDS011;29247;50.944;5.382;2023-04-24T11:10:44;11.00;;;4.57;;
43650;SDS011;29247;50.944;5.382;2023-04-24T11:13:14;11.82;;;4.80;;
43650;SDS011;29247;50.944;5.382;2023-04-24T11:15:41;11.10;;;4.18;;
43650;SDS011;29247;50.944;5.382;2023-04-24T11:18:12;10.40;;;4.18;;
43650;SDS011;29247;50.944;5.382;2023-04-24T11:20:43;12.45;;;4.38;;
43650;SDS011;29247;50.944;5.382;2023-04-24T11:23:13;9.18;;;4.90;;
43650;SDS011;29247;50.944;5.382;2023-04-24T11:25:43;10.05;;;4.15;;
43650;SDS011;29247;50.944;5.382;2023-04-24T11:28:09;11.82;;;4.10;;
43650;SDS011;29247;50.944;5.382;2023-04-24T11:30:42;10.50;;;4.80;;
43650;SDS011;29247;50.944;5.382;2023-04-24T11:33:08;10.95;;;4.93;;
43650;SDS011;29247;50.944;5.382;2023-04-24T11:35:39;10.50;;;5.00;;
43650;SDS011;29247;50.944;5.382;2023-04-24T11:38:06;11.27;;;4.13;;
43650;SDS011;29247;50.944;5.382;2023-04-24T11:40:35;9.20;;;4.00;;
43650;SDS011;29247;50.944;5.382;2023-04-24T11:43:02;7.25;;;3.95;;
43650;SDS011;29247;50.944;5.382;2023-04-24T11:45:30;8.85;;;3.80;;
43650;SDS011;29247;50.944;5.382;2023-04-24T11:47:56;6.03;;;4.07;;
43650;SDS011;29247;50.944;5.382;2023-04-24T11:50:22;6.72;;;3.60;;
43650;SDS011;29247;50.944;5.382;2023-04-24T11:52:53;10.32;;;4.53;;
43650;SDS011;29247;50.944;5.382;2023-04-24T11:57:46;9.45;;;3.58;;
43650;SDS011;29247;50.944;5.382;2023-04-24T12:00:20;6.35;;;3.33;;
43650;SDS011;29247;50.944;5.382;2023-04-24T12:03:04;7.50;;;3.22;;
43650;SDS011;29247;50.944;5.382;2023-04-24T12:05:31;6.10;;;2.92;;
43650;SDS011;29247;50.944;5.382;2023-04-24T12:07:58;6.50;;;3.45;;
43650;SDS011;29247;50.944;5.382;2023-04-24T12:10:27;9.20;;;2.80;;
43650;SDS011;29247;50.944;5.382;2023-04-24T12:12:56;5.63;;;2.90;;
43650;SDS011;29247;50.944;5.382;2023-04-24T12:15:23;4.75;;;3.05;;
43650;SDS011;29247;50.944;5.382;2023-04-24T12:17:53;7.70;;;3.08;;
43650;SDS011;29247;50.944;5.382;2023-04-24T12:22:54;7.10;;;3.08;;
43650;SDS011;29247;50.944;5.382;2023-04-24T12:25:23;6.70;;;3.10;;
43650;SDS011;29247;50.944;5.382;2023-04-24T12:30:31;4.55;;;2.83;;
43650;SDS011;29247;50.944;5.382;2023-04-24T12:32:59;6.95;;;2.72;;
43650;SDS011;29247;50.944;5.382;2023-04-24T12:35:32;6.20;;;2.92;;
43650;SDS011;29247;50.944;5.382;2023-04-24T12:38:09;5.57;;;2.63;;
43650;SDS011;29247;50.944;5.382;2023-04-24T12:40:37;9.63;;;2.55;;
43650;SDS011;29247;50.944;5.382;2023-04-24T12:43:14;8.35;;;2.95;;
43650;SDS011;29247;50.944;5.382;2023-04-24T12:45:41;6.45;;;2.75;;
43650;SDS011;29247;50.944;5.382;2023-04-24T12:48:07;8.55;;;3.67;;
43650;SDS011;29247;50.944;5.382;2023-04-24T12:50:33;5.40;;;2.88;;
43650;SDS011;29247;50.944;5.382;2023-04-24T12:53:01;6.05;;;2.80;;
43650;SDS011;29247;50.944;5.382;2023-04-24T12:55:30;5.95;;;2.67;;
43650;SDS011;29247;50.944;5.382;2023-04-24T12:57:55;5.43;;;2.97;;
43650;SDS011;29247;50.944;5.382;2023-04-24T13:00:21;4.68;;;2.33;;
43650;SDS011;29247;50.944;5.382;2023-04-24T13:02:47;8.15;;;2.70;;
43650;SDS011;29247;50.944;5.382;2023-04-24T13:05:13;5.10;;;2.70;;
43650;SDS011;29247;50.944;5.382;2023-04-24T13:07:39;4.22;;;2.40;;
43650;SDS011;29247;50.944;5.382;2023-04-24T13:10:05;6.05;;;2.40;;
43650;SDS011;29247;50.944;5.382;2023-04-24T13:12:32;5.82;;;2.10;;
43650;SDS011;29247;50.944;5.382;2023-04-24T13:14:58;8.50;;;2.75;;
43650;SDS011;29247;50.944;5.382;2023-04-24T13:17:26;5.00;;;2.10;;
43650;SDS011;29247;50.944;5.382;2023-04-24T13:19:53;3.40;;;2.53;;
43650;SDS011;29247;50.944;5.382;2023-04-24T13:22:22;5.82;;;2.42;;
43650;SDS011;29247;50.944;5.382;2023-04-24T13:24:47;7.35;;;2.45;;
43650;SDS011;29247;50.944;5.382;2023-04-24T13:27:16;7.43;;;2.25;;
43650;SDS011;29247;50.944;5.382;2023-04-24T13:29:43;4.78;;;2.50;;
43650;SDS011;29247;50.944;5.382;2023-04-24T13:32:12;5.40;;;2.90;;
43650;SDS011;29247;50.944;5.382;2023-04-24T13:34:40;10.02;;;2.90;;
43650;SDS011;29247;50.944;5.382;2023-04-24T13:37:07;4.75;;;2.13;;
43650;SDS011;29247;50.944;5.382;2023-04-24T13:39:33;3.55;;;2.10;;
43650;SDS011;29247;50.944;5.382;2023-04-24T13:42:00;7.80;;;3.28;;
43650;SDS011;29247;50.944;5.382;2023-04-24T13:44:25;5.70;;;2.17;;
43650;SDS011;29247;50.944;5.382;2023-04-24T13:46:52;7.82;;;2.50;;
43650;SDS011;29247;50.944;5.382;2023-04-24T13:49:22;5.20;;;2.40;;
43650;SDS011;29247;50.944;5.382;2023-04-24T13:51:50;4.10;;;2.13;;
43650;SDS011;29247;50.944;5.382;2023-04-24T13:54:17;6.32;;;2.42;;
43650;SDS011;29247;50.944;5.382;2023-04-24T13:56:44;8.23;;;2.88;;
43650;SDS011;29247;50.944;5.382;2023-04-24T13:59:11;4.05;;;2.15;;
43650;SDS011;29247;50.944;5.382;2023-04-24T14:01:40;3.60;;;2.03;;
43650;SDS011;29247;50.944;5.382;2023-04-24T14:04:10;6.25;;;2.38;;
43650;SDS011;29247;50.944;5.382;2023-04-24T14:06:36;3.97;;;2.25;;
43650;SDS011;29247;50.944;5.382;2023-04-24T14:09:02;3.33;;;2.17;;
43650;SDS011;29247;50.944;5.382;2023-04-24T14:11:29;6.65;;;2.17;;
43650;SDS011;29247;50.944;5.382;2023-04-24T14:13:54;3.88;;;1.92;;
43650;SDS011;29247;50.944;5.382;2023-04-24T14:16:23;5.47;;;1.95;;
43650;SDS011;29247;50.944;5.382;2023-04-24T14:18:52;4.38;;;2.17;;
43650;SDS011;29247;50.944;5.382;2023-04-24T14:21:17;4.85;;;2.85;;
43650;SDS011;29247;50.944;5.382;2023-04-24T14:23:43;8.02;;;3.08;;
43650;SDS011;29247;50.944;5.382;2023-04-24T14:26:10;6.28;;;2.72;;
43650;SDS011;29247;50.944;5.382;2023-04-24T14:28:36;6.22;;;2.65;;
43650;SDS011;29247;50.944;5.382;2023-04-24T14:31:03;5.13;;;2.60;;
43650;SDS011;29247;50.944;5.382;2023-04-24T14:33:33;8.43;;;2.58;;
43650;SDS011;29247;50.944;5.382;2023-04-24T14:35:59;4.88;;;2.17;;
43650;SDS011;29247;50.944;5.382;2023-04-24T14:38:27;5.20;;;2.05;;
43650;SDS011;29247;50.944;5.382;2023-04-24T14:40:56;4.07;;;2.20;;
43650;SDS011;29247;50.944;5.382;2023-04-24T14:43:22;3.60;;;2.33;;
43650;SDS011;29247;50.944;5.382;2023-04-24T14:45:50;3.22;;;2.10;;
43650;SDS011;29247;50.944;5.382;2023-04-24T14:48:16;3.75;;;1.77;;
43650;SDS011;29247;50.944;5.382;2023-04-24T14:50:42;7.35;;;2.15;;
43650;SDS011;29247;50.944;5.382;2023-04-24T14:53:08;5.03;;;2.20;;
43650;SDS011;29247;50.944;5.382;2023-04-24T14:55:34;3.67;;;2.20;;
43650;SDS011;29247;50.944;5.382;2023-04-24T14:58:01;4.47;;;2.25;;
43650;SDS011;29247;50.944;5.382;2023-04-24T15:00:27;3.53;;;1.98;;
43650;SDS011;29247;50.944;5.382;2023-04-24T15:02:53;4.10;;;2.10;;
43650;SDS011;29247;50.944;5.382;2023-04-24T15:05:20;3.22;;;2.08;;